createdAt,value
2023-05-24T00:01:37.727Z,7.75
2023-05-24T00:04:41.720Z,5.47
2023-05-24T00:07:44.387Z,7.47
2023-05-24T00:10:46.865Z,8.27
2023-05-24T00:13:49.899Z,8.55
2023-05-24T00:16:52.451Z,8.77
2023-05-24T00:19:54.899Z,8.88
2023-05-24T00:22:57.287Z,7.80
2023-05-24T00:25:59.871Z,7.55
2023-05-24T00:29:02.467Z,7.43
2023-05-24T00:32:05.233Z,7.28
2023-05-24T00:35:08.073Z,6.95
2023-05-24T00:38:10.628Z,6.95
2023-05-24T00:41:13.173Z,7.25
2023-05-24T00:44:15.749Z,7.70
2023-05-24T00:47:18.347Z,7.35
2023-05-24T00:50:22.173Z,7.17
2023-05-24T00:53:24.549Z,11.75
2023-05-24T00:56:28.068Z,14.18
2023-05-24T00:59:31.221Z,11.43
2023-05-24T01:02:33.740Z,8.30
2023-05-24T01:05:36.296Z,9.80
2023-05-24T01:08:58.153Z,15.50
2023-05-24T01:12:16.566Z,12.63
2023-05-24T01:15:23.253Z,8.00
2023-05-24T01:18:30.605Z,8.82
2023-05-24T01:21:50.635Z,10.32
2023-05-24T01:25:11.789Z,7.00
2023-05-24T01:28:14.687Z,23.25
2023-05-24T01:31:18.853Z,8.40
2023-05-24T01:34:26.661Z,7.30
2023-05-24T01:37:29.097Z,7.15
2023-05-24T01:40:31.569Z,9.38
2023-05-24T01:44:03.461Z,10.90
2023-05-24T01:47:21.806Z,10.50
2023-05-24T01:50:32.830Z,9.63
2023-05-24T01:53:37.988Z,7.78
2023-05-24T01:56:42.050Z,9.95
2023-05-24T01:59:45.216Z,9.57
2023-05-24T02:02:49.752Z,9.82
2023-05-24T02:05:53.335Z,10.25
2023-05-24T02:08:55.772Z,9.93
2023-05-24T02:11:58.263Z,9.48
2023-05-24T02:15:01.752Z,10.05
2023-05-24T02:18:04.701Z,8.13
2023-05-24T02:21:07.265Z,8.38
2023-05-24T02:24:12.608Z,9.63
2023-05-24T02:27:15.228Z,8.18
2023-05-24T02:30:17.685Z,9.27
2023-05-24T02:33:20.120Z,7.75
2023-05-24T02:36:23.774Z,6.80
2023-05-24T02:39:26.391Z,6.80
2023-05-24T02:42:29.391Z,8.10
2023-05-24T02:45:31.900Z,7.63
2023-05-24T02:48:34.289Z,9.10
2023-05-24T02:51:39.655Z,8.32
2023-05-24T02:54:42.451Z,8.63
2023-05-24T02:57:45.067Z,7.22
2023-05-24T03:00:48.014Z,7.72
2023-05-24T03:03:50.820Z,7.55
2023-05-24T03:06:53.748Z,8.32
2023-05-24T03:09:56.309Z,8.18
2023-05-24T03:12:59.473Z,8.30
2023-05-24T03:16:02.050Z,8.55
2023-05-24T03:19:08.437Z,7.07
2023-05-24T03:22:12.704Z,8.05
2023-05-24T03:25:15.177Z,9.25
2023-05-24T03:28:17.802Z,9.73
2023-05-24T03:31:21.141Z,9.70
2023-05-24T03:34:24.058Z,10.55
2023-05-24T03:37:26.462Z,9.93
2023-05-24T03:40:32.550Z,8.70
2023-05-24T03:43:42.413Z,9.98
2023-05-24T03:46:50.685Z,9.45
2023-05-24T03:49:53.108Z,7.70
2023-05-24T03:52:55.653Z,8.30
2023-05-24T03:55:59.002Z,10.40
2023-05-24T03:59:04.129Z,9.27
2023-05-24T04:02:08.390Z,8.18
2023-05-24T04:05:11.270Z,9.10
2023-05-24T04:08:15.226Z,7.87
2023-05-24T04:11:17.673Z,7.97
2023-05-24T04:14:21.140Z,9.02
2023-05-24T04:17:25.083Z,9.52
2023-05-24T04:20:29.425Z,9.25
2023-05-24T04:23:32.102Z,9.43
2023-05-24T04:26:35.231Z,10.07
2023-05-24T04:29:39.410Z,9.63
2023-05-24T04:32:41.865Z,8.95
2023-05-24T04:35:45.832Z,7.97
2023-05-24T04:38:49.231Z,8.82
2023-05-24T04:41:53.245Z,9.02
2023-05-24T04:44:55.775Z,8.55
2023-05-24T04:47:58.228Z,9.40
2023-05-24T04:51:00.710Z,8.38
2023-05-24T04:54:08.999Z,9.38
2023-05-24T04:57:11.936Z,8.68
2023-05-24T05:00:14.808Z,15.45
2023-05-24T05:03:17.233Z,7.78
2023-05-24T05:06:19.798Z,8.63
2023-05-24T05:09:24.467Z,8.65
2023-05-24T05:12:27.013Z,9.75
2023-05-24T05:15:29.626Z,8.80
2023-05-24T05:18:32.893Z,9.02
2023-05-24T05:21:36.574Z,10.50
2023-05-24T05:24:39.023Z,8.65
2023-05-24T05:27:41.520Z,8.60
2023-05-24T05:30:44.138Z,7.75
2023-05-24T05:33:46.681Z,7.22
2023-05-24T05:36:49.104Z,6.00
2023-05-24T05:39:51.538Z,9.43
2023-05-24T05:42:54.016Z,8.25
2023-05-24T05:45:57.247Z,7.65
2023-05-24T05:48:59.853Z,8.40
2023-05-24T05:52:05.882Z,7.63
2023-05-24T05:55:09.522Z,7.00
2023-05-24T05:58:12.544Z,12.32
2023-05-24T06:01:17.001Z,6.90
2023-05-24T06:04:19.666Z,6.95
2023-05-24T06:07:22.106Z,6.93
2023-05-24T06:10:24.646Z,7.53
2023-05-24T06:13:28.445Z,7.75
2023-05-24T06:16:32.710Z,6.50
2023-05-24T06:19:35.157Z,7.13
2023-05-24T06:22:39.960Z,8.23
2023-05-24T06:25:43.994Z,7.78
2023-05-24T06:28:46.518Z,8.60
2023-05-24T06:31:49.882Z,7.30
2023-05-24T06:34:52.717Z,10.80
2023-05-24T06:37:55.098Z,7.05
2023-05-24T06:40:57.456Z,7.63
2023-05-24T06:43:59.922Z,8.05
2023-05-24T06:47:02.906Z,8.07
2023-05-24T06:50:05.843Z,7.50
2023-05-24T06:53:08.295Z,7.20
2023-05-24T06:56:10.733Z,7.63
2023-05-24T06:59:13.124Z,7.22
2023-05-24T07:02:15.540Z,9.30
2023-05-24T07:05:17.995Z,7.30
2023-05-24T07:08:20.401Z,8.77
2023-05-24T07:11:23.077Z,8.38
2023-05-24T07:14:27.493Z,8.38
2023-05-24T07:17:30.164Z,8.88
2023-05-24T07:20:32.734Z,8.25
2023-05-24T07:23:35.558Z,7.68
2023-05-24T07:26:37.983Z,8.38
2023-05-24T07:29:40.329Z,7.60
2023-05-24T07:32:42.782Z,9.18
2023-05-24T07:35:51.245Z,7.70
2023-05-24T07:38:53.584Z,8.75
2023-05-24T07:41:56.063Z,8.32
2023-05-24T07:44:58.525Z,7.60
2023-05-24T07:48:01.373Z,8.02
2023-05-24T07:51:03.920Z,7.18
2023-05-24T07:54:06.822Z,10.32
2023-05-24T07:57:09.639Z,7.97
2023-05-24T08:00:14.923Z,10.25
2023-05-24T08:03:18.072Z,7.55
2023-05-24T08:06:20.654Z,9.38
2023-05-24T08:09:23.650Z,9.60
2023-05-24T08:12:26.257Z,8.63
2023-05-24T08:15:28.725Z,7.80
2023-05-24T08:18:31.302Z,8.65
2023-05-24T08:21:34.092Z,7.75
2023-05-24T08:24:36.462Z,8.63
2023-05-24T08:27:38.867Z,8.02
2023-05-24T08:30:41.392Z,8.82
2023-05-24T08:33:43.887Z,8.43
2023-05-24T08:36:46.382Z,7.95
2023-05-24T08:39:49.164Z,9.80
2023-05-24T08:42:53.298Z,10.90
2023-05-24T08:45:58.820Z,9.00
2023-05-24T08:49:03.639Z,11.07
2023-05-24T08:52:07.805Z,8.43
2023-05-24T08:55:10.913Z,9.52
2023-05-24T08:58:13.913Z,9.95
2023-05-24T09:01:17.790Z,8.90
2023-05-24T09:04:22.099Z,10.82
2023-05-24T09:07:25.422Z,10.32
2023-05-24T09:10:33.137Z,9.45
2023-05-24T09:13:41.182Z,8.10
2023-05-24T09:16:45.125Z,7.93
2023-05-24T09:19:47.693Z,9.43
2023-05-24T09:22:53.224Z,8.18
2023-05-24T09:25:55.704Z,9.43
2023-05-24T09:28:58.224Z,9.98
2023-05-24T09:32:00.650Z,9.77
2023-05-24T09:35:03.264Z,7.85
2023-05-24T09:38:06.335Z,7.15
2023-05-24T09:41:11.049Z,9.40
2023-05-24T09:44:15.480Z,9.05
2023-05-24T09:47:17.986Z,7.68
2023-05-24T09:50:20.445Z,7.55
2023-05-24T09:53:23.273Z,8.13
2023-05-24T09:56:25.834Z,8.57
2023-05-24T09:59:28.777Z,9.63
2023-05-24T10:02:41.318Z,8.95
2023-05-24T10:05:48.519Z,7.53
2023-05-24T10:08:54.572Z,7.22
2023-05-24T10:11:57.010Z,13.07
2023-05-24T10:15:00.177Z,13.93
2023-05-24T10:18:09.848Z,9.10
2023-05-24T10:21:14.556Z,7.95
2023-05-24T10:24:19.317Z,7.82
2023-05-24T10:27:28.830Z,7.60
2023-05-24T10:30:42.869Z,8.00
2023-05-24T10:33:48.606Z,8.23
2023-05-24T10:36:51.641Z,10.00
2023-05-24T10:39:54.508Z,9.07
2023-05-24T10:42:57.062Z,9.77
2023-05-24T10:45:59.680Z,9.75
2023-05-24T10:49:04.152Z,9.38
2023-05-24T10:52:10.805Z,8.52
2023-05-24T10:55:13.408Z,9.00
2023-05-24T10:58:15.871Z,9.20
2023-05-24T11:01:32.137Z,8.77
2023-05-24T11:04:37.943Z,10.02
2023-05-24T11:07:43.709Z,8.82
2023-05-24T11:10:46.706Z,8.20
2023-05-24T11:13:49.466Z,8.15
2023-05-24T11:16:52.044Z,8.23
2023-05-24T11:19:56.046Z,7.13
2023-05-24T11:22:59.859Z,7.18
2023-05-24T11:26:04.496Z,9.02
2023-05-24T11:29:07.899Z,7.30
2023-05-24T11:32:10.518Z,7.57
2023-05-24T11:35:13.029Z,8.20
2023-05-24T11:38:17.122Z,7.57
2023-05-24T11:41:19.576Z,7.88
2023-05-24T11:44:22.692Z,7.53
2023-05-24T11:47:25.399Z,6.63
2023-05-24T11:50:28.895Z,6.88
2023-05-24T11:53:31.348Z,5.40
2023-05-24T11:56:34.363Z,7.47
2023-05-24T11:59:38.229Z,6.55
2023-05-24T12:02:41.765Z,7.38
2023-05-24T12:05:44.643Z,8.93
2023-05-24T12:08:48.004Z,9.23
2023-05-24T12:11:51.592Z,9.77
2023-05-24T12:14:56.845Z,9.95
2023-05-24T12:17:59.734Z,11.02
2023-05-24T12:21:02.182Z,10.60
2023-05-24T12:24:15.296Z,11.07
2023-05-24T12:27:17.794Z,9.07
2023-05-24T12:30:26.532Z,10.13
2023-05-24T12:33:29.168Z,9.07
2023-05-24T12:36:31.735Z,9.05
2023-05-24T12:39:37.514Z,9.82
2023-05-24T12:42:39.951Z,10.57
2023-05-24T12:45:42.412Z,9.35
2023-05-24T12:48:45.536Z,10.90
2023-05-24T12:51:49.334Z,10.82
2023-05-24T12:57:56.335Z,10.05
2023-05-24T13:00:59.198Z,9.43
2023-05-24T13:04:01.663Z,10.10
2023-05-24T13:07:04.163Z,9.20
2023-05-24T13:10:08.246Z,9.43
2023-05-24T13:13:10.780Z,8.52
2023-05-24T13:16:13.639Z,9.57
2023-05-24T13:19:16.699Z,8.60
2023-05-24T13:22:20.092Z,8.60
2023-05-24T13:25:22.824Z,10.10
2023-05-24T13:28:25.741Z,8.93
2023-05-24T13:31:28.476Z,8.52
2023-05-24T13:34:31.130Z,8.57
2023-05-24T13:37:33.640Z,7.55
2023-05-24T13:40:38.349Z,10.63
2023-05-24T13:43:42.555Z,8.55
2023-05-24T13:46:45.938Z,7.78
2023-05-24T13:49:48.986Z,8.05
2023-05-24T13:52:51.765Z,8.75
2023-05-24T13:55:55.027Z,7.90
2023-05-24T13:58:57.799Z,7.78
2023-05-24T14:02:00.393Z,7.13
2023-05-24T14:05:21.683Z,8.27
2023-05-24T14:08:26.005Z,8.57
2023-05-24T14:11:31.709Z,8.30
2023-05-24T14:17:40.202Z,8.35
2023-05-24T14:20:43.007Z,7.80
2023-05-24T14:23:45.440Z,7.65
2023-05-24T14:26:47.957Z,7.63
2023-05-24T14:29:51.970Z,7.97
2023-05-24T14:32:54.780Z,7.60
2023-05-24T14:35:57.206Z,7.75
2023-05-24T14:38:59.643Z,7.30
2023-05-24T14:42:02.077Z,7.38
2023-05-24T14:45:04.995Z,7.78
2023-05-24T14:48:11.670Z,7.32
2023-05-24T14:51:14.581Z,7.97
2023-05-24T14:54:16.990Z,7.22
2023-05-24T14:57:19.420Z,6.60
2023-05-24T15:00:23.245Z,7.05
2023-05-24T15:03:26.595Z,8.05
2023-05-24T15:06:34.890Z,6.00
2023-05-24T15:09:37.421Z,7.63
2023-05-24T15:12:40.022Z,8.93
2023-05-24T15:15:43.472Z,13.73
2023-05-24T15:18:47.822Z,9.90
2023-05-24T15:21:51.365Z,10.65
2023-05-24T15:24:53.861Z,11.38
2023-05-24T15:27:56.889Z,8.00
2023-05-24T15:31:03.320Z,8.60
2023-05-24T15:34:07.697Z,10.73
2023-05-24T15:40:19.251Z,6.78
2023-05-24T15:43:22.086Z,6.95
2023-05-24T15:46:25.234Z,6.85
2023-05-24T15:49:29.580Z,6.55
2023-05-24T15:52:33.725Z,7.28
2023-05-24T15:55:37.474Z,7.03
2023-05-24T15:58:39.922Z,7.22
2023-05-24T16:01:42.718Z,7.38
2023-05-24T16:04:45.314Z,8.05
2023-05-24T16:07:47.844Z,6.47
2023-05-24T16:10:50.499Z,8.15
2023-05-24T16:13:54.417Z,7.10
2023-05-24T16:16:58.808Z,8.02
2023-05-24T16:20:01.757Z,7.32
2023-05-24T16:23:04.529Z,7.45
2023-05-24T16:26:07.113Z,8.05
2023-05-24T16:29:11.527Z,7.03
2023-05-24T16:32:14.388Z,7.50
2023-05-24T16:35:17.099Z,7.93
2023-05-24T16:38:19.671Z,7.65
2023-05-24T16:41:22.371Z,7.63
2023-05-24T16:44:24.790Z,8.18
2023-05-24T16:47:29.588Z,7.40
2023-05-24T16:50:33.728Z,7.65
2023-05-24T16:53:36.312Z,7.78
2023-05-24T16:56:38.831Z,7.35
2023-05-24T16:59:42.431Z,7.40
2023-05-24T17:02:45.293Z,8.73
2023-05-24T17:05:49.406Z,6.80
2023-05-24T17:08:51.937Z,7.03
2023-05-24T17:11:54.459Z,7.15
2023-05-24T17:14:57.030Z,6.90
2023-05-24T17:17:59.815Z,7.53
2023-05-24T17:21:04.564Z,6.82
2023-05-24T17:24:07.248Z,6.70
2023-05-24T17:27:09.716Z,8.20
2023-05-24T17:30:12.776Z,6.78
2023-05-24T17:33:15.205Z,6.95
2023-05-24T17:36:17.672Z,7.32
2023-05-24T17:39:21.472Z,6.90
2023-05-24T17:42:25.000Z,7.55
2023-05-24T17:45:27.583Z,7.65
2023-05-24T17:48:32.934Z,9.68
2023-05-24T17:51:35.501Z,8.38
2023-05-24T17:54:37.971Z,9.15
2023-05-24T17:57:40.428Z,7.75
2023-05-24T18:00:42.847Z,7.45
2023-05-24T18:03:45.331Z,7.47
2023-05-24T18:06:47.707Z,7.18
2023-05-24T18:09:50.165Z,8.57
2023-05-24T18:12:52.550Z,7.72
2023-05-24T18:15:57.070Z,8.27
2023-05-24T18:18:59.720Z,7.22
2023-05-24T18:22:02.160Z,7.10
2023-05-24T18:25:04.908Z,7.90
2023-05-24T18:28:07.506Z,8.07
2023-05-24T18:31:10.735Z,7.53
2023-05-24T18:34:13.864Z,6.80
2023-05-24T18:37:16.505Z,6.55
2023-05-24T18:40:18.984Z,7.05
2023-05-24T18:43:21.552Z,7.25
2023-05-24T18:46:26.071Z,6.00
2023-05-24T18:49:28.600Z,6.97
2023-05-24T18:52:31.113Z,8.80
2023-05-24T18:55:33.593Z,9.70
2023-05-24T18:58:36.177Z,11.13
2023-05-24T19:01:38.567Z,13.70
2023-05-24T19:04:41.026Z,11.70
2023-05-24T19:07:43.537Z,12.32
2023-05-24T19:10:46.180Z,12.73
2023-05-24T19:13:48.600Z,13.15
2023-05-24T19:16:51.085Z,12.93
2023-05-24T19:19:53.500Z,14.80
2023-05-24T19:22:57.281Z,13.45
2023-05-24T19:25:59.787Z,13.88
2023-05-24T19:29:02.346Z,13.25
2023-05-24T19:32:05.124Z,13.07
2023-05-24T19:35:08.495Z,12.95
2023-05-24T19:38:12.233Z,14.55
2023-05-24T19:41:14.818Z,18.73
2023-05-24T19:44:17.232Z,15.52
2023-05-24T19:47:19.696Z,15.52
2023-05-24T19:50:22.376Z,15.18
2023-05-24T19:53:24.909Z,15.27
2023-05-24T19:56:27.579Z,15.63
2023-05-24T19:59:30.358Z,13.80
2023-05-24T20:02:35.540Z,14.82
2023-05-24T20:05:39.590Z,14.82
2023-05-24T20:08:42.396Z,15.88
2023-05-24T20:11:48.380Z,14.80
2023-05-24T20:14:52.723Z,15.95
2023-05-24T20:20:57.828Z,16.30
2023-05-24T20:24:00.428Z,16.05
2023-05-24T20:27:03.201Z,16.05
2023-05-24T20:30:06.542Z,16.83
2023-05-24T20:33:08.926Z,15.52
2023-05-24T20:36:11.563Z,16.67
2023-05-24T20:39:13.995Z,16.50
2023-05-24T20:42:16.685Z,16.67
2023-05-24T20:45:19.964Z,17.75
2023-05-24T20:48:23.400Z,17.08
2023-05-24T20:51:25.832Z,16.95
2023-05-24T20:54:28.158Z,17.05
2023-05-24T20:57:30.985Z,17.83
2023-05-24T21:00:33.494Z,17.42
2023-05-24T21:03:36.156Z,17.60
2023-05-24T21:06:40.112Z,18.33
2023-05-24T21:09:42.946Z,17.60
2023-05-24T21:12:45.713Z,18.25
2023-05-24T21:15:48.467Z,17.13
2023-05-24T21:18:52.238Z,17.52
2023-05-24T21:21:54.709Z,13.48
2023-05-24T21:24:57.163Z,17.85
2023-05-24T21:27:59.719Z,16.52
2023-05-24T21:31:02.189Z,17.15
2023-05-24T21:34:04.521Z,17.52
2023-05-24T21:37:07.277Z,17.60
2023-05-24T21:40:10.125Z,18.05
2023-05-24T21:43:12.673Z,16.95
2023-05-24T21:46:15.127Z,16.65
2023-05-24T21:49:18.285Z,18.10
2023-05-24T21:52:20.790Z,17.75
2023-05-24T21:55:23.331Z,18.08
2023-05-24T21:58:26.434Z,18.08
2023-05-24T22:01:29.039Z,17.92
2023-05-24T22:04:31.504Z,16.60
2023-05-24T22:07:34.029Z,17.38
2023-05-24T22:10:36.514Z,17.88
2023-05-24T22:13:39.256Z,18.20
2023-05-24T22:16:41.793Z,19.15
2023-05-24T22:19:44.215Z,20.83
2023-05-24T22:22:53.733Z,19.20
2023-05-24T22:25:56.243Z,20.40
2023-05-24T22:29:04.443Z,20.45
2023-05-24T22:32:07.114Z,20.17
2023-05-24T22:35:10.091Z,18.67
2023-05-24T22:38:12.429Z,19.35
2023-05-24T22:41:14.803Z,19.45
2023-05-24T22:44:17.282Z,20.00
2023-05-24T22:47:22.022Z,19.50
2023-05-24T22:50:25.707Z,20.08
2023-05-24T22:53:28.883Z,19.15
2023-05-24T22:56:32.412Z,19.30
2023-05-24T22:59:35.833Z,16.63
2023-05-24T23:02:38.324Z,19.37
2023-05-24T23:05:41.902Z,19.67
2023-05-24T23:08:44.568Z,20.33
2023-05-24T23:11:47.044Z,20.42
2023-05-24T23:14:49.664Z,20.25
2023-05-24T23:17:56.471Z,19.25
2023-05-24T23:21:00.648Z,20.48
2023-05-24T23:24:05.252Z,20.02
2023-05-24T23:27:07.706Z,19.00
2023-05-24T23:30:10.861Z,20.17
2023-05-24T23:33:13.281Z,19.08
2023-05-24T23:36:15.860Z,20.17
2023-05-24T23:39:18.330Z,18.55
2023-05-24T23:42:20.709Z,18.65
2023-05-24T23:45:23.711Z,18.35
2023-05-24T23:48:26.188Z,17.60
2023-05-24T23:51:34.029Z,17.60
2023-05-24T23:54:37.006Z,17.52
2023-05-24T23:57:42.069Z,16.95
